sensor_id;sensor_type;location;lat;lon;timestamp;temperature;humidity
41924;DHT22;27613;48.116;11.656;2023-02-02T00:01:47;4.00;95.60
41924;DHT22;27613;48.116;11.656;2023-02-02T00:04:18;3.90;95.80
41924;DHT22;27613;48.116;11.656;2023-02-02T00:06:44;4.00;95.60
41924;DHT22;27613;48.116;11.656;2023-02-02T00:09:15;4.00;95.60
41924;DHT22;27613;48.116;11.656;2023-02-02T00:11:41;4.10;95.10
41924;DHT22;27613;48.116;11.656;2023-02-02T00:14:07;4.00;95.80
41924;DHT22;27613;48.116;11.656;2023-02-02T00:16:39;3.90;96.40
41924;DHT22;27613;48.116;11.656;2023-02-02T00:19:16;3.80;97.10
41924;DHT22;27613;48.116;11.656;2023-02-02T00:21:43;3.80;97.50
41924;DHT22;27613;48.116;11.656;2023-02-02T00:24:12;3.80;97.30
41924;DHT22;27613;48.116;11.656;2023-02-02T00:26:40;3.80;97.50
41924;DHT22;27613;48.116;11.656;2023-02-02T00:29:08;3.70;98.00
41924;DHT22;27613;48.116;11.656;2023-02-02T00:31:36;3.70;97.90
41924;DHT22;27613;48.116;11.656;2023-02-02T00:34:02;3.80;97.80
41924;DHT22;27613;48.116;11.656;2023-02-02T00:36:27;3.70;98.30
41924;DHT22;27613;48.116;11.656;2023-02-02T00:38:52;3.80;97.60
41924;DHT22;27613;48.116;11.656;2023-02-02T00:41:19;3.80;97.20
41924;DHT22;27613;48.116;11.656;2023-02-02T00:43:45;3.80;97.90
41924;DHT22;27613;48.116;11.656;2023-02-02T00:46:30;3.80;98.20
41924;DHT22;27613;48.116;11.656;2023-02-02T00:48:56;3.70;98.20
41924;DHT22;27613;48.116;11.656;2023-02-02T00:51:21;3.70;98.70
41924;DHT22;27613;48.116;11.656;2023-02-02T00:53:47;3.60;98.80
41924;DHT22;27613;48.116;11.656;2023-02-02T00:56:12;3.60;99.20
41924;DHT22;27613;48.116;11.656;2023-02-02T00:58:38;3.70;98.80
41924;DHT22;27613;48.116;11.656;2023-02-02T01:01:03;3.60;99.90
41924;DHT22;27613;48.116;11.656;2023-02-02T01:03:29;3.60;99.90
41924;DHT22;27613;48.116;11.656;2023-02-02T01:05:54;3.50;99.90
41924;DHT22;27613;48.116;11.656;2023-02-02T01:08:20;3.50;99.90
41924;DHT22;27613;48.116;11.656;2023-02-02T01:10:45;3.50;99.90
41924;DHT22;27613;48.116;11.656;2023-02-02T01:13:11;3.40;99.90
41924;DHT22;27613;48.116;11.656;2023-02-02T01:15:36;3.40;99.90
41924;DHT22;27613;48.116;11.656;2023-02-02T01:18:02;3.30;99.90
41924;DHT22;27613;48.116;11.656;2023-02-02T01:20:27;3.30;99.90
41924;DHT22;27613;48.116;11.656;2023-02-02T01:22:53;3.20;99.90
41924;DHT22;27613;48.116;11.656;2023-02-02T01:25:19;3.20;99.90
41924;DHT22;27613;48.116;11.656;2023-02-02T01:27:44;3.20;99.90
41924;DHT22;27613;48.116;11.656;2023-02-02T01:30:10;3.20;99.90
41924;DHT22;27613;48.116;11.656;2023-02-02T01:32:39;3.20;99.90
41924;DHT22;27613;48.116;11.656;2023-02-02T01:35:05;3.20;99.90
41924;DHT22;27613;48.116;11.656;2023-02-02T01:37:31;3.20;99.90
41924;DHT22;27613;48.116;11.656;2023-02-02T01:39:56;3.30;99.90
41924;DHT22;27613;48.116;11.656;2023-02-02T01:42:22;3.20;99.90
41924;DHT22;27613;48.116;11.656;2023-02-02T01:47:19;3.30;99.90
41924;DHT22;27613;48.116;11.656;2023-02-02T01:49:45;3.40;99.90
41924;DHT22;27613;48.116;11.656;2023-02-02T01:52:11;3.30;99.90
41924;DHT22;27613;48.116;11.656;2023-02-02T01:54:43;3.40;99.90
41924;DHT22;27613;48.116;11.656;2023-02-02T01:57:28;3.40;99.90
41924;DHT22;27613;48.116;11.656;2023-02-02T01:59:57;3.50;99.90
41924;DHT22;27613;48.116;11.656;2023-02-02T02:02:24;3.50;99.90
41924;DHT22;27613;48.116;11.656;2023-02-02T02:04:53;3.60;99.90
41924;DHT22;27613;48.116;11.656;2023-02-02T02:07:19;3.50;99.90
41924;DHT22;27613;48.116;11.656;2023-02-02T02:09:45;3.50;99.90
41924;DHT22;27613;48.116;11.656;2023-02-02T02:12:12;3.60;99.90
41924;DHT22;27613;48.116;11.656;2023-02-02T02:14:41;3.60;99.90
41924;DHT22;27613;48.116;11.656;2023-02-02T02:29:46;3.70;99.90
41924;DHT22;27613;48.116;11.656;2023-02-02T02:34:52;3.70;99.90
41924;DHT22;27613;48.116;11.656;2023-02-02T02:38:09;3.70;99.90
41924;DHT22;27613;48.116;11.656;2023-02-02T02:42:45;3.60;99.90
41924;DHT22;27613;48.116;11.656;2023-02-02T02:45:13;3.60;99.90
41924;DHT22;27613;48.116;11.656;2023-02-02T02:47:40;3.70;99.90
41924;DHT22;27613;48.116;11.656;2023-02-02T02:50:06;3.70;99.90
41924;DHT22;27613;48.116;11.656;2023-02-02T02:52:33;3.70;99.90
41924;DHT22;27613;48.116;11.656;2023-02-02T02:55:01;3.70;99.90
41924;DHT22;27613;48.116;11.656;2023-02-02T02:57:51;3.70;99.90
41924;DHT22;27613;48.116;11.656;2023-02-02T03:06:41;3.80;99.90
41924;DHT22;27613;48.116;11.656;2023-02-02T03:09:12;3.70;99.90
41924;DHT22;27613;48.116;11.656;2023-02-02T03:11:39;3.70;99.90
41924;DHT22;27613;48.116;11.656;2023-02-02T03:14:05;3.80;99.90
41924;DHT22;27613;48.116;11.656;2023-02-02T03:16:34;3.70;99.90
41924;DHT22;27613;48.116;11.656;2023-02-02T03:19:00;3.80;99.90
41924;DHT22;27613;48.116;11.656;2023-02-02T03:21:26;3.80;99.90
41924;DHT22;27613;48.116;11.656;2023-02-02T03:23:51;3.80;99.90
41924;DHT22;27613;48.116;11.656;2023-02-02T03:26:17;3.80;99.90
41924;DHT22;27613;48.116;11.656;2023-02-02T03:28:42;3.50;99.90
41924;DHT22;27613;48.116;11.656;2023-02-02T03:31:08;3.40;99.90
41924;DHT22;27613;48.116;11.656;2023-02-02T03:33:35;3.40;99.90
41924;DHT22;27613;48.116;11.656;2023-02-02T03:36:01;3.40;99.90
41924;DHT22;27613;48.116;11.656;2023-02-02T03:38:26;3.40;99.90
41924;DHT22;27613;48.116;11.656;2023-02-02T03:40:52;3.40;99.90
41924;DHT22;27613;48.116;11.656;2023-02-02T03:43:22;3.40;99.90
41924;DHT22;27613;48.116;11.656;2023-02-02T03:45:54;3.30;99.90
41924;DHT22;27613;48.116;11.656;2023-02-02T03:48:20;3.20;99.90
41924;DHT22;27613;48.116;11.656;2023-02-02T03:50:45;3.20;99.90
41924;DHT22;27613;48.116;11.656;2023-02-02T03:53:11;3.20;99.90
41924;DHT22;27613;48.116;11.656;2023-02-02T03:55:36;3.20;99.90
41924;DHT22;27613;48.116;11.656;2023-02-02T03:58:04;3.20;99.90
41924;DHT22;27613;48.116;11.656;2023-02-02T04:00:30;3.20;99.90
41924;DHT22;27613;48.116;11.656;2023-02-02T04:02:56;3.20;99.90
41924;DHT22;27613;48.116;11.656;2023-02-02T04:05:21;3.30;99.90
41924;DHT22;27613;48.116;11.656;2023-02-02T04:07:47;3.40;99.90
41924;DHT22;27613;48.116;11.656;2023-02-02T04:10:13;3.40;99.90
41924;DHT22;27613;48.116;11.656;2023-02-02T04:12:39;3.40;99.90
41924;DHT22;27613;48.116;11.656;2023-02-02T04:15:05;3.40;99.90
41924;DHT22;27613;48.116;11.656;2023-02-02T04:17:31;3.40;99.90
41924;DHT22;27613;48.116;11.656;2023-02-02T04:19:56;3.40;99.90
41924;DHT22;27613;48.116;11.656;2023-02-02T04:22:23;3.40;99.90
41924;DHT22;27613;48.116;11.656;2023-02-02T04:24:49;3.30;99.90
41924;DHT22;27613;48.116;11.656;2023-02-02T04:27:14;3.40;99.90
41924;DHT22;27613;48.116;11.656;2023-02-02T04:29:40;3.40;99.90
41924;DHT22;27613;48.116;11.656;2023-02-02T04:32:05;3.40;99.90
41924;DHT22;27613;48.116;11.656;2023-02-02T04:34:31;3.40;99.90
41924;DHT22;27613;48.116;11.656;2023-02-02T04:36:56;3.40;99.90
41924;DHT22;27613;48.116;11.656;2023-02-02T04:39:22;3.50;99.90
41924;DHT22;27613;48.116;11.656;2023-02-02T04:41:48;3.50;99.90
41924;DHT22;27613;48.116;11.656;2023-02-02T04:44:14;3.40;99.90
41924;DHT22;27613;48.116;11.656;2023-02-02T04:46:43;3.30;99.90
41924;DHT22;27613;48.116;11.656;2023-02-02T04:49:10;3.30;99.90
41924;DHT22;27613;48.116;11.656;2023-02-02T04:51:36;3.20;99.90
41924;DHT22;27613;48.116;11.656;2023-02-02T04:54:02;3.20;99.90
41924;DHT22;27613;48.116;11.656;2023-02-02T04:56:28;3.30;99.90
41924;DHT22;27613;48.116;11.656;2023-02-02T04:58:54;3.30;99.90
41924;DHT22;27613;48.116;11.656;2023-02-02T05:01:20;3.40;99.90
41924;DHT22;27613;48.116;11.656;2023-02-02T05:03:46;3.50;99.90
41924;DHT22;27613;48.116;11.656;2023-02-02T05:06:12;3.50;99.90
41924;DHT22;27613;48.116;11.656;2023-02-02T05:08:38;3.60;99.90
41924;DHT22;27613;48.116;11.656;2023-02-02T05:11:08;3.60;99.90
41924;DHT22;27613;48.116;11.656;2023-02-02T05:13:34;3.60;99.90
41924;DHT22;27613;48.116;11.656;2023-02-02T05:16:00;3.60;99.90
41924;DHT22;27613;48.116;11.656;2023-02-02T05:18:25;3.60;99.90
41924;DHT22;27613;48.116;11.656;2023-02-02T05:20:51;3.70;99.90
41924;DHT22;27613;48.116;11.656;2023-02-02T05:23:17;3.70;99.90
41924;DHT22;27613;48.116;11.656;2023-02-02T05:25:43;3.60;99.90
41924;DHT22;27613;48.116;11.656;2023-02-02T05:28:08;3.60;99.90
41924;DHT22;27613;48.116;11.656;2023-02-02T05:30:34;3.50;99.90
41924;DHT22;27613;48.116;11.656;2023-02-02T05:33:00;3.60;99.90
41924;DHT22;27613;48.116;11.656;2023-02-02T05:35:25;3.50;99.90
41924;DHT22;27613;48.116;11.656;2023-02-02T05:37:51;3.50;99.90
41924;DHT22;27613;48.116;11.656;2023-02-02T05:40:16;3.40;99.90
41924;DHT22;27613;48.116;11.656;2023-02-02T05:42:42;3.30;99.90
41924;DHT22;27613;48.116;11.656;2023-02-02T05:45:11;3.30;99.90
41924;DHT22;27613;48.116;11.656;2023-02-02T05:47:37;3.30;99.90
41924;DHT22;27613;48.116;11.656;2023-02-02T05:50:02;3.40;99.90
41924;DHT22;27613;48.116;11.656;2023-02-02T05:52:29;3.40;99.90
41924;DHT22;27613;48.116;11.656;2023-02-02T05:54:57;3.30;99.90
41924;DHT22;27613;48.116;11.656;2023-02-02T05:57:22;3.40;99.90
41924;DHT22;27613;48.116;11.656;2023-02-02T05:59:48;3.40;99.90
41924;DHT22;27613;48.116;11.656;2023-02-02T06:02:13;3.30;99.90
41924;DHT22;27613;48.116;11.656;2023-02-02T06:04:39;3.30;99.90
41924;DHT22;27613;48.116;11.656;2023-02-02T06:07:04;3.30;99.90
41924;DHT22;27613;48.116;11.656;2023-02-02T06:09:30;3.30;99.90
41924;DHT22;27613;48.116;11.656;2023-02-02T06:11:57;3.30;99.90
41924;DHT22;27613;48.116;11.656;2023-02-02T06:14:22;3.30;99.90
41924;DHT22;27613;48.116;11.656;2023-02-02T06:16:48;3.40;99.90
41924;DHT22;27613;48.116;11.656;2023-02-02T06:19:13;3.50;99.90
41924;DHT22;27613;48.116;11.656;2023-02-02T06:21:39;3.40;99.90
41924;DHT22;27613;48.116;11.656;2023-02-02T06:24:05;3.30;99.90
41924;DHT22;27613;48.116;11.656;2023-02-02T06:26:30;3.40;99.90
41924;DHT22;27613;48.116;11.656;2023-02-02T06:28:56;3.40;99.90
41924;DHT22;27613;48.116;11.656;2023-02-02T06:31:22;3.40;99.90
41924;DHT22;27613;48.116;11.656;2023-02-02T06:33:52;3.40;99.90
41924;DHT22;27613;48.116;11.656;2023-02-02T06:36:18;3.50;99.90
41924;DHT22;27613;48.116;11.656;2023-02-02T06:38:50;3.60;99.90
41924;DHT22;27613;48.116;11.656;2023-02-02T06:41:17;3.60;99.90
41924;DHT22;27613;48.116;11.656;2023-02-02T06:43:43;3.60;99.90
41924;DHT22;27613;48.116;11.656;2023-02-02T06:46:08;3.60;99.90
41924;DHT22;27613;48.116;11.656;2023-02-02T06:48:34;3.60;99.90
41924;DHT22;27613;48.116;11.656;2023-02-02T06:50:59;3.60;99.90
41924;DHT22;27613;48.116;11.656;2023-02-02T06:53:26;3.60;99.90
41924;DHT22;27613;48.116;11.656;2023-02-02T06:55:56;3.60;99.90
41924;DHT22;27613;48.116;11.656;2023-02-02T06:58:22;3.60;99.90
41924;DHT22;27613;48.116;11.656;2023-02-02T07:00:47;3.60;99.90
41924;DHT22;27613;48.116;11.656;2023-02-02T07:03:14;3.70;99.90
41924;DHT22;27613;48.116;11.656;2023-02-02T07:05:40;3.80;99.90
41924;DHT22;27613;48.116;11.656;2023-02-02T07:08:06;3.70;99.90
41924;DHT22;27613;48.116;11.656;2023-02-02T07:10:31;3.70;99.90
41924;DHT22;27613;48.116;11.656;2023-02-02T07:12:57;3.70;99.90
41924;DHT22;27613;48.116;11.656;2023-02-02T07:15:22;3.70;99.90
41924;DHT22;27613;48.116;11.656;2023-02-02T07:17:48;3.70;99.90
41924;DHT22;27613;48.116;11.656;2023-02-02T07:20:13;3.70;99.90
41924;DHT22;27613;48.116;11.656;2023-02-02T07:22:40;3.70;99.90
41924;DHT22;27613;48.116;11.656;2023-02-02T07:25:07;3.80;99.90
41924;DHT22;27613;48.116;11.656;2023-02-02T07:27:32;3.80;99.90
41924;DHT22;27613;48.116;11.656;2023-02-02T07:29:58;3.80;99.90
41924;DHT22;27613;48.116;11.656;2023-02-02T07:32:24;3.90;99.90
41924;DHT22;27613;48.116;11.656;2023-02-02T07:34:50;3.80;99.90
41924;DHT22;27613;48.116;11.656;2023-02-02T07:37:15;3.90;99.90
41924;DHT22;27613;48.116;11.656;2023-02-02T07:39:41;3.90;99.90
41924;DHT22;27613;48.116;11.656;2023-02-02T07:42:10;3.90;99.90
41924;DHT22;27613;48.116;11.656;2023-02-02T07:44:36;4.00;99.90
41924;DHT22;27613;48.116;11.656;2023-02-02T07:47:01;3.90;99.90
41924;DHT22;27613;48.116;11.656;2023-02-02T07:49:27;3.90;99.90
41924;DHT22;27613;48.116;11.656;2023-02-02T07:51:52;3.90;99.90
41924;DHT22;27613;48.116;11.656;2023-02-02T07:54:18;3.90;99.90
41924;DHT22;27613;48.116;11.656;2023-02-02T07:56:43;3.90;99.90
41924;DHT22;27613;48.116;11.656;2023-02-02T07:59:09;3.90;99.90
41924;DHT22;27613;48.116;11.656;2023-02-02T08:01:35;3.80;99.90
41924;DHT22;27613;48.116;11.656;2023-02-02T08:04:01;3.80;99.90
41924;DHT22;27613;48.116;11.656;2023-02-02T08:06:36;3.80;99.90
41924;DHT22;27613;48.116;11.656;2023-02-02T08:09:03;3.80;99.90
41924;DHT22;27613;48.116;11.656;2023-02-02T08:11:29;3.80;99.90
41924;DHT22;27613;48.116;11.656;2023-02-02T08:13:57;3.80;99.90
41924;DHT22;27613;48.116;11.656;2023-02-02T08:16:24;3.80;99.90
41924;DHT22;27613;48.116;11.656;2023-02-02T08:18:50;3.80;99.90
41924;DHT22;27613;48.116;11.656;2023-02-02T08:21:16;3.70;99.90
41924;DHT22;27613;48.116;11.656;2023-02-02T08:23:42;3.70;99.90
41924;DHT22;27613;48.116;11.656;2023-02-02T08:26:11;3.80;99.90
41924;DHT22;27613;48.116;11.656;2023-02-02T08:28:38;3.80;99.90
41924;DHT22;27613;48.116;11.656;2023-02-02T08:31:19;3.80;99.90
41924;DHT22;27613;48.116;11.656;2023-02-02T08:33:46;3.80;99.90
41924;DHT22;27613;48.116;11.656;2023-02-02T08:36:13;3.80;99.90
41924;DHT22;27613;48.116;11.656;2023-02-02T08:38:39;3.90;99.90
41924;DHT22;27613;48.116;11.656;2023-02-02T08:41:10;3.80;99.90
41924;DHT22;27613;48.116;11.656;2023-02-02T08:43:36;3.80;99.90
41924;DHT22;27613;48.116;11.656;2023-02-02T08:46:03;3.90;99.90
41924;DHT22;27613;48.116;11.656;2023-02-02T08:48:28;3.90;99.90
41924;DHT22;27613;48.116;11.656;2023-02-02T08:50:55;3.90;99.90
41924;DHT22;27613;48.116;11.656;2023-02-02T08:53:21;3.90;99.90
41924;DHT22;27613;48.116;11.656;2023-02-02T08:55:47;3.80;99.90
41924;DHT22;27613;48.116;11.656;2023-02-02T08:58:12;3.70;99.90
41924;DHT22;27613;48.116;11.656;2023-02-02T09:00:39;3.70;99.90
41924;DHT22;27613;48.116;11.656;2023-02-02T09:03:04;3.60;99.90
41924;DHT22;27613;48.116;11.656;2023-02-02T09:05:30;3.50;99.90
41924;DHT22;27613;48.116;11.656;2023-02-02T09:07:56;3.50;99.90
41924;DHT22;27613;48.116;11.656;2023-02-02T09:10:21;3.50;99.90
41924;DHT22;27613;48.116;11.656;2023-02-02T09:12:47;3.50;99.90
41924;DHT22;27613;48.116;11.656;2023-02-02T09:15:12;3.50;99.90
41924;DHT22;27613;48.116;11.656;2023-02-02T09:17:38;3.60;99.90
41924;DHT22;27613;48.116;11.656;2023-02-02T09:20:04;3.70;99.90
41924;DHT22;27613;48.116;11.656;2023-02-02T09:22:31;3.70;99.90
41924;DHT22;27613;48.116;11.656;2023-02-02T09:24:57;3.70;99.90
41924;DHT22;27613;48.116;11.656;2023-02-02T09:27:22;3.80;99.90
41924;DHT22;27613;48.116;11.656;2023-02-02T09:29:47;3.80;99.90
41924;DHT22;27613;48.116;11.656;2023-02-02T09:32:13;3.80;99.90
41924;DHT22;27613;48.116;11.656;2023-02-02T09:34:39;3.80;99.90
41924;DHT22;27613;48.116;11.656;2023-02-02T09:37:04;3.90;99.90
41924;DHT22;27613;48.116;11.656;2023-02-02T09:39:30;3.90;99.90
41924;DHT22;27613;48.116;11.656;2023-02-02T09:42:06;3.90;99.90
41924;DHT22;27613;48.116;11.656;2023-02-02T09:44:46;3.90;99.90
41924;DHT22;27613;48.116;11.656;2023-02-02T09:47:24;3.90;99.90
41924;DHT22;27613;48.116;11.656;2023-02-02T09:53:42;3.90;99.90
41924;DHT22;27613;48.116;11.656;2023-02-02T09:56:09;4.00;99.90
41924;DHT22;27613;48.116;11.656;2023-02-02T09:58:47;4.00;99.90
41924;DHT22;27613;48.116;11.656;2023-02-02T10:06:37;4.00;99.90
41924;DHT22;27613;48.116;11.656;2023-02-02T10:11:48;3.90;99.90
41924;DHT22;27613;48.116;11.656;2023-02-02T10:14:39;3.90;99.90
41924;DHT22;27613;48.116;11.656;2023-02-02T10:17:29;4.00;99.90
41924;DHT22;27613;48.116;11.656;2023-02-02T10:19:59;4.10;99.90
41924;DHT22;27613;48.116;11.656;2023-02-02T10:22:28;4.20;99.90
41924;DHT22;27613;48.116;11.656;2023-02-02T10:24:56;4.20;99.90
41924;DHT22;27613;48.116;11.656;2023-02-02T10:27:37;4.20;99.90
41924;DHT22;27613;48.116;11.656;2023-02-02T10:30:14;4.20;99.90
41924;DHT22;27613;48.116;11.656;2023-02-02T10:32:56;4.20;99.90
41924;DHT22;27613;48.116;11.656;2023-02-02T10:35:46;4.20;99.90
41924;DHT22;27613;48.116;11.656;2023-02-02T10:46:48;4.30;99.90
41924;DHT22;27613;48.116;11.656;2023-02-02T10:49:36;4.30;99.90
41924;DHT22;27613;48.116;11.656;2023-02-02T11:00:21;4.30;99.90
41924;DHT22;27613;48.116;11.656;2023-02-02T11:02:50;4.40;99.90
41924;DHT22;27613;48.116;11.656;2023-02-02T11:05:22;4.30;99.90
41924;DHT22;27613;48.116;11.656;2023-02-02T11:08:40;4.30;99.90
41924;DHT22;27613;48.116;11.656;2023-02-02T11:11:28;4.30;99.90
41924;DHT22;27613;48.116;11.656;2023-02-02T11:16:31;4.50;99.90
41924;DHT22;27613;48.116;11.656;2023-02-02T11:18:57;4.60;99.90
41924;DHT22;27613;48.116;11.656;2023-02-02T11:21:30;4.50;99.90
41924;DHT22;27613;48.116;11.656;2023-02-02T11:23:59;4.50;99.90
41924;DHT22;27613;48.116;11.656;2023-02-02T11:26:26;4.50;99.90
41924;DHT22;27613;48.116;11.656;2023-02-02T11:28:54;4.50;99.90
41924;DHT22;27613;48.116;11.656;2023-02-02T11:31:34;4.60;99.90
41924;DHT22;27613;48.116;11.656;2023-02-02T11:36:57;4.70;99.90
41924;DHT22;27613;48.116;11.656;2023-02-02T11:39:24;4.70;99.90
41924;DHT22;27613;48.116;11.656;2023-02-02T11:41:51;4.60;99.90
41924;DHT22;27613;48.116;11.656;2023-02-02T11:44:25;4.60;99.90
41924;DHT22;27613;48.116;11.656;2023-02-02T11:46:51;4.40;99.90
41924;DHT22;27613;48.116;11.656;2023-02-02T11:49:19;4.40;99.90
41924;DHT22;27613;48.116;11.656;2023-02-02T11:52:01;4.40;99.90
41924;DHT22;27613;48.116;11.656;2023-02-02T11:54:31;4.40;99.90
41924;DHT22;27613;48.116;11.656;2023-02-02T11:57:03;4.40;99.90
41924;DHT22;27613;48.116;11.656;2023-02-02T11:59:41;4.40;99.90
41924;DHT22;27613;48.116;11.656;2023-02-02T12:02:22;4.50;99.90
41924;DHT22;27613;48.116;11.656;2023-02-02T12:04:51;4.60;99.90
41924;DHT22;27613;48.116;11.656;2023-02-02T12:07:28;4.70;99.90
41924;DHT22;27613;48.116;11.656;2023-02-02T12:10:00;4.80;99.90
41924;DHT22;27613;48.116;11.656;2023-02-02T12:17:43;4.40;99.90
41924;DHT22;27613;48.116;11.656;2023-02-02T12:20:14;4.40;99.90
41924;DHT22;27613;48.116;11.656;2023-02-02T12:31:53;4.40;99.90
41924;DHT22;27613;48.116;11.656;2023-02-02T12:46:25;4.20;99.90
41924;DHT22;27613;48.116;11.656;2023-02-02T12:53:50;4.10;99.90
41924;DHT22;27613;48.116;11.656;2023-02-02T12:56:36;4.10;99.90
41924;DHT22;27613;48.116;11.656;2023-02-02T12:59:11;4.10;99.90
41924;DHT22;27613;48.116;11.656;2023-02-02T13:01:55;4.10;99.90
41924;DHT22;27613;48.116;11.656;2023-02-02T13:04:41;4.10;99.90
41924;DHT22;27613;48.116;11.656;2023-02-02T13:07:15;4.00;99.90
41924;DHT22;27613;48.116;11.656;2023-02-02T13:09:58;4.00;99.90
41924;DHT22;27613;48.116;11.656;2023-02-02T13:12:25;4.00;99.90
41924;DHT22;27613;48.116;11.656;2023-02-02T13:14:56;3.90;99.90
41924;DHT22;27613;48.116;11.656;2023-02-02T13:17:35;3.80;99.90
41924;DHT22;27613;48.116;11.656;2023-02-02T13:20:27;3.70;99.90
41924;DHT22;27613;48.116;11.656;2023-02-02T13:22:59;3.60;99.90
41924;DHT22;27613;48.116;11.656;2023-02-02T13:25:36;3.60;99.90
41924;DHT22;27613;48.116;11.656;2023-02-02T13:28:06;3.60;99.90
41924;DHT22;27613;48.116;11.656;2023-02-02T13:30:38;3.60;99.90
41924;DHT22;27613;48.116;11.656;2023-02-02T13:33:12;3.50;99.90
41924;DHT22;27613;48.116;11.656;2023-02-02T13:35:55;3.50;99.90
41924;DHT22;27613;48.116;11.656;2023-02-02T13:38:28;3.50;99.90
41924;DHT22;27613;48.116;11.656;2023-02-02T13:41:01;3.50;99.90
41924;DHT22;27613;48.116;11.656;2023-02-02T13:49:05;3.40;99.90
41924;DHT22;27613;48.116;11.656;2023-02-02T13:57:04;3.30;99.90
41924;DHT22;27613;48.116;11.656;2023-02-02T13:59:50;3.30;99.90
41924;DHT22;27613;48.116;11.656;2023-02-02T14:02:27;3.40;99.90
41924;DHT22;27613;48.116;11.656;2023-02-02T14:04:56;3.40;99.90
41924;DHT22;27613;48.116;11.656;2023-02-02T14:07:41;3.40;99.90
41924;DHT22;27613;48.116;11.656;2023-02-02T14:10:22;3.30;99.90
41924;DHT22;27613;48.116;11.656;2023-02-02T14:12:49;3.30;99.90
41924;DHT22;27613;48.116;11.656;2023-02-02T14:15:15;3.30;99.90
41924;DHT22;27613;48.116;11.656;2023-02-02T14:20:46;3.20;99.90
41924;DHT22;27613;48.116;11.656;2023-02-02T14:23:50;3.20;99.90
41924;DHT22;27613;48.116;11.656;2023-02-02T14:26:19;3.20;99.90
41924;DHT22;27613;48.116;11.656;2023-02-02T14:28:47;3.20;99.90
41924;DHT22;27613;48.116;11.656;2023-02-02T14:31:40;3.20;99.90
41924;DHT22;27613;48.116;11.656;2023-02-02T14:39:45;3.20;99.90
41924;DHT22;27613;48.116;11.656;2023-02-02T14:47:54;3.20;99.90
41924;DHT22;27613;48.116;11.656;2023-02-02T14:56:13;3.10;99.90
41924;DHT22;27613;48.116;11.656;2023-02-02T14:58:51;3.20;99.90
41924;DHT22;27613;48.116;11.656;2023-02-02T15:03:54;3.10;99.90
41924;DHT22;27613;48.116;11.656;2023-02-02T15:06:36;3.10;99.90
41924;DHT22;27613;48.116;11.656;2023-02-02T15:14:48;3.20;99.90
41924;DHT22;27613;48.116;11.656;2023-02-02T15:20:17;3.20;99.90
41924;DHT22;27613;48.116;11.656;2023-02-02T15:25:36;3.20;99.90
41924;DHT22;27613;48.116;11.656;2023-02-02T15:28:16;3.20;99.90
41924;DHT22;27613;48.116;11.656;2023-02-02T15:30:48;3.30;99.90
41924;DHT22;27613;48.116;11.656;2023-02-02T15:33:57;3.30;99.90
41924;DHT22;27613;48.116;11.656;2023-02-02T15:36:26;3.30;99.90
41924;DHT22;27613;48.116;11.656;2023-02-02T15:38:55;3.30;99.90
41924;DHT22;27613;48.116;11.656;2023-02-02T15:41:42;3.20;99.90
41924;DHT22;27613;48.116;11.656;2023-02-02T15:44:26;3.30;99.90
41924;DHT22;27613;48.116;11.656;2023-02-02T15:46:53;3.30;99.90
41924;DHT22;27613;48.116;11.656;2023-02-02T15:51:50;3.30;99.90
41924;DHT22;27613;48.116;11.656;2023-02-02T15:54:47;3.20;99.90
41924;DHT22;27613;48.116;11.656;2023-02-02T15:57:34;3.30;99.90
41924;DHT22;27613;48.116;11.656;2023-02-02T16:00:34;3.30;99.90
41924;DHT22;27613;48.116;11.656;2023-02-02T16:07:54;3.20;99.90
41924;DHT22;27613;48.116;11.656;2023-02-02T16:10:20;3.20;99.90
41924;DHT22;27613;48.116;11.656;2023-02-02T16:12:46;3.20;99.90
41924;DHT22;27613;48.116;11.656;2023-02-02T16:15:20;3.30;99.90
41924;DHT22;27613;48.116;11.656;2023-02-02T16:17:57;3.20;99.90
41924;DHT22;27613;48.116;11.656;2023-02-02T16:20:23;3.30;99.90
41924;DHT22;27613;48.116;11.656;2023-02-02T16:22:49;3.30;99.90
41924;DHT22;27613;48.116;11.656;2023-02-02T16:25:18;3.30;99.90
41924;DHT22;27613;48.116;11.656;2023-02-02T16:27:46;3.40;99.90
41924;DHT22;27613;48.116;11.656;2023-02-02T16:32:51;3.30;99.90
41924;DHT22;27613;48.116;11.656;2023-02-02T16:35:43;3.40;99.90
41924;DHT22;27613;48.116;11.656;2023-02-02T16:38:30;3.40;99.90
41924;DHT22;27613;48.116;11.656;2023-02-02T16:41:06;3.50;99.90
41924;DHT22;27613;48.116;11.656;2023-02-02T16:43:33;3.40;99.90
41924;DHT22;27613;48.116;11.656;2023-02-02T16:46:10;3.40;99.90
41924;DHT22;27613;48.116;11.656;2023-02-02T16:48:56;3.50;99.90
41924;DHT22;27613;48.116;11.656;2023-02-02T16:51:26;3.40;99.90
41924;DHT22;27613;48.116;11.656;2023-02-02T16:56:34;3.50;99.90
41924;DHT22;27613;48.116;11.656;2023-02-02T17:01:41;3.50;99.90
41924;DHT22;27613;48.116;11.656;2023-02-02T17:04:18;3.50;99.90
41924;DHT22;27613;48.116;11.656;2023-02-02T17:06:46;3.50;99.90
41924;DHT22;27613;48.116;11.656;2023-02-02T17:09:28;3.60;99.90
41924;DHT22;27613;48.116;11.656;2023-02-02T17:11:58;3.50;99.90
41924;DHT22;27613;48.116;11.656;2023-02-02T17:17:15;3.60;99.90
41924;DHT22;27613;48.116;11.656;2023-02-02T17:19:41;3.60;99.90
41924;DHT22;27613;48.116;11.656;2023-02-02T17:22:06;3.60;99.90
41924;DHT22;27613;48.116;11.656;2023-02-02T17:24:33;3.60;99.90
41924;DHT22;27613;48.116;11.656;2023-02-02T17:26:59;3.60;99.90
41924;DHT22;27613;48.116;11.656;2023-02-02T17:29:25;3.60;99.90
41924;DHT22;27613;48.116;11.656;2023-02-02T17:31:51;3.70;99.90
41924;DHT22;27613;48.116;11.656;2023-02-02T17:34:17;3.70;99.90
41924;DHT22;27613;48.116;11.656;2023-02-02T17:36:43;3.70;99.90
41924;DHT22;27613;48.116;11.656;2023-02-02T17:39:09;3.70;99.90
41924;DHT22;27613;48.116;11.656;2023-02-02T17:41:35;3.70;99.90
41924;DHT22;27613;48.116;11.656;2023-02-02T17:44:01;3.70;99.90
41924;DHT22;27613;48.116;11.656;2023-02-02T17:46:30;3.70;99.90
41924;DHT22;27613;48.116;11.656;2023-02-02T17:48:56;3.70;99.90
41924;DHT22;27613;48.116;11.656;2023-02-02T17:51:22;3.70;99.90
41924;DHT22;27613;48.116;11.656;2023-02-02T17:53:48;3.80;99.90
41924;DHT22;27613;48.116;11.656;2023-02-02T17:56:13;3.80;99.90
41924;DHT22;27613;48.116;11.656;2023-02-02T17:58:39;3.80;99.90
41924;DHT22;27613;48.116;11.656;2023-02-02T18:01:06;3.80;99.90
41924;DHT22;27613;48.116;11.656;2023-02-02T18:03:34;3.80;99.90
41924;DHT22;27613;48.116;11.656;2023-02-02T18:06:01;3.80;99.90
41924;DHT22;27613;48.116;11.656;2023-02-02T18:08:28;3.80;99.90
41924;DHT22;27613;48.116;11.656;2023-02-02T18:10:53;3.80;99.90
41924;DHT22;27613;48.116;11.656;2023-02-02T18:13:21;3.90;99.90
41924;DHT22;27613;48.116;11.656;2023-02-02T18:15:48;3.90;99.90
41924;DHT22;27613;48.116;11.656;2023-02-02T18:18:14;3.90;99.90
41924;DHT22;27613;48.116;11.656;2023-02-02T18:20:41;3.90;99.90